Time;durP1;ratioP1;P1;durP2;ratioP2;P2;SDS_P1;SDS_P2;PMS_P1;PMS_P2;Temp;Humidity;BMP_temperature;BMP_pressure;BME280_temperature;BME280_humidity;BME280_pressure;Samples;Min_cycle;Max_cycle;Signal;HPM_P1;HPM_P2
2023/03/21 00:00:44;;;;;;;7.65;4.03;;;;;;;11.27;63.16;96892.97;4974126;28;20490;-75
2023/03/21 00:03:14;;;;;;;10.07;4.15;;;;;;;11.20;63.58;96886.03;4974118;28;20078;-76
2023/03/21 00:05:48;;;;;;;5.82;4.45;;;;;;;11.12;63.51;96889.53;4973965;28;20059;-76
2023/03/21 00:08:16;;;;;;;8.27;4.55;;;;;;;11.10;63.79;96889.69;4973207;28;20508;-76
2023/03/21 00:10:44;;;;;;;5.97;4.20;;;;;;;11.09;63.37;96890.69;4973999;28;20563;-76
2023/03/21 00:13:12;;;;;;;6.60;4.15;;;;;;;11.06;63.31;96880.63;4974243;28;20146;-76
2023/03/21 00:15:49;;;;;;;7.68;4.40;;;;;;;11.01;63.31;96882.13;4974016;28;20042;-76
2023/03/21 00:18:40;;;;;;;6.47;4.55;;;;;;;10.93;63.42;96869.94;4973273;28;20183;-75
2023/03/21 00:21:14;;;;;;;5.50;3.92;;;;;;;10.85;64.01;96870.03;4973915;28;20618;-76
2023/03/21 00:24:01;;;;;;;6.90;4.07;;;;;;;10.79;64.26;96868.13;4973518;28;20059;-76
2023/03/21 00:26:30;;;;;;;5.38;4.05;;;;;;;10.75;64.71;96856.44;4972484;28;20078;-76
2023/03/21 00:28:58;;;;;;;4.97;3.80;;;;;;;10.70;64.71;96867.38;4972013;28;20177;-76
2023/03/21 00:31:26;;;;;;;5.35;4.50;;;;;;;10.69;65.05;96863.97;4973378;28;20050;-76
2023/03/21 00:33:53;;;;;;;6.50;3.70;;;;;;;10.70;65.11;96862.19;4973285;28;20134;-76
2023/03/21 00:36:24;;;;;;;5.03;3.95;;;;;;;10.73;65.18;96864.41;4972640;28;20058;-76
2023/03/21 00:38:52;;;;;;;4.93;4.15;;;;;;;10.77;66.37;96855.25;4972871;28;20102;-76
2023/03/21 00:41:20;;;;;;;4.22;3.83;;;;;;;10.78;65.23;96856.91;4973596;28;20078;-76
2023/03/21 00:44:07;;;;;;;5.68;4.00;;;;;;;10.73;64.77;96853.97;4973332;28;20528;-76
2023/03/21 00:46:35;;;;;;;5.55;4.05;;;;;;;10.71;66.47;96854.19;4973219;28;20074;-76
2023/03/21 00:49:13;;;;;;;4.65;3.75;;;;;;;10.74;68.44;96853.00;4972933;28;20074;-76
2023/03/21 00:51:43;;;;;;;5.13;4.30;;;;;;;10.75;68.31;96846.00;4973405;28;20101;-76
2023/03/21 00:54:12;;;;;;;3.95;3.63;;;;;;;10.80;70.05;96848.88;4973298;28;20113;-76
2023/03/21 00:56:39;;;;;;;5.53;4.22;;;;;;;10.84;67.88;96844.91;4973289;28;20047;-76
2023/03/21 00:59:07;;;;;;;6.47;4.13;;;;;;;10.84;66.96;96843.13;4972957;28;20073;-76
2023/03/21 01:01:34;;;;;;;5.28;4.00;;;;;;;10.84;66.20;96850.13;4973010;28;20055;-76
2023/03/21 01:04:04;;;;;;;4.47;3.90;;;;;;;10.88;67.40;96838.38;4973192;28;20513;-76
2023/03/21 01:06:32;;;;;;;5.03;4.32;;;;;;;10.87;65.89;96840.16;4973080;28;20054;-76
2023/03/21 01:09:01;;;;;;;5.45;4.25;;;;;;;10.84;65.30;96842.31;4972643;28;20114;-76
2023/03/21 01:11:29;;;;;;;5.47;4.13;;;;;;;10.79;65.15;96832.41;4973242;28;20066;-76
2023/03/21 01:13:58;;;;;;;5.05;4.45;;;;;;;10.75;65.19;96830.34;4973159;28;20512;-76
2023/03/21 01:16:45;;;;;;;4.35;3.83;;;;;;;10.74;65.15;96834.75;4973143;28;20453;-75
2023/03/21 01:19:15;;;;;;;7.18;4.22;;;;;;;10.71;64.85;96833.31;4972606;28;20077;-76
2023/03/21 01:21:52;;;;;;;4.15;3.72;;;;;;;10.69;64.58;96829.22;4973157;28;20050;-75
2023/03/21 01:24:21;;;;;;;4.35;3.95;;;;;;;10.66;64.54;96822.56;4973259;28;20066;-75
2023/03/21 01:26:49;;;;;;;5.40;4.53;;;;;;;10.63;64.32;96822.94;4973235;28;20082;-76
2023/03/21 01:29:16;;;;;;;5.40;4.68;;;;;;;10.58;64.49;96825.25;4972503;28;20055;-75
2023/03/21 01:31:44;;;;;;;5.70;4.50;;;;;;;10.55;64.66;96825.59;4973374;28;20138;-76
2023/03/21 01:34:12;;;;;;;4.10;3.60;;;;;;;10.55;66.29;96830.03;4973174;28;20055;-76
2023/03/21 01:36:39;;;;;;;4.90;3.88;;;;;;;10.59;67.73;96826.88;4975922;28;20468;-76
2023/03/21 01:39:07;;;;;;;6.75;4.28;;;;;;;10.59;66.40;96826.88;4976027;28;20054;-76
2023/03/21 01:41:38;;;;;;;4.78;4.28;;;;;;;10.58;66.54;96825.25;4976836;28;20557;-76
2023/03/21 01:44:14;;;;;;;6.30;4.80;;;;;;;10.57;67.77;96828.84;4977232;28;20064;-76
2023/03/21 01:46:45;;;;;;;10.00;5.33;;;;;;;10.56;65.69;96826.41;4976864;28;20061;-76
2023/03/21 01:49:33;;;;;;;4.97;4.50;;;;;;;10.57;68.36;96820.22;4975919;28;20362;-76
2023/03/21 01:52:06;;;;;;;6.38;5.18;;;;;;;10.59;67.21;96829.50;4976599;28;20054;-76
2023/03/21 01:54:43;;;;;;;6.25;4.50;;;;;;;10.59;65.86;96824.28;4976749;28;20497;-76
2023/03/21 01:57:17;;;;;;;5.43;4.93;;;;;;;10.59;65.34;96821.66;4976394;28;20101;-76
2023/03/21 01:59:50;;;;;;;6.65;4.82;;;;;;;10.59;65.09;96826.88;4975971;28;20508;-76
2023/03/21 02:02:22;;;;;;;5.38;4.30;;;;;;;10.60;65.36;96825.88;4977274;28;20062;-76
2023/03/21 02:04:54;;;;;;;6.10;4.30;;;;;;;10.59;64.77;96823.47;4976483;28;20468;-76
2023/03/21 02:07:27;;;;;;;4.53;4.05;;;;;;;10.58;64.61;96825.25;4976187;28;20057;-76
2023/03/21 02:09:56;;;;;;;7.18;5.05;;;;;;;10.57;64.30;96818.41;4975562;28;20482;-76
2023/03/21 02:12:26;;;;;;;6.32;5.20;;;;;;;10.55;64.01;96815.16;4976055;28;20137;-76
2023/03/21 02:14:55;;;;;;;7.97;5.32;;;;;;;10.52;64.24;96807.72;4976048;28;20085;-76
2023/03/21 02:17:31;;;;;;;9.13;5.55;;;;;;;10.51;64.01;96811.28;4976233;28;20421;-76
2023/03/21 02:20:27;;;;;;;7.82;5.30;;;;;;;10.50;63.80;96809.69;4975845;28;20065;-76
2023/03/21 02:23:28;;;;;;;6.15;5.03;;;;;;;10.46;64.04;96806.59;4976174;28;20057;-76
2023/03/21 02:26:17;;;;;;;5.22;4.63;;;;;;;10.43;64.44;96809.56;4976390;28;20051;-76
2023/03/21 02:28:55;;;;;;;7.75;4.78;;;;;;;10.38;64.54;96798.03;4966540;28;20058;-76
2023/03/21 02:31:39;;;;;;;5.50;4.82;;;;;;;10.35;65.07;96801.00;4975771;28;20501;-76
2023/03/21 02:34:31;;;;;;;7.38;5.05;;;;;;;10.26;64.43;96793.22;4975994;28;20059;-76
2023/03/21 02:37:06;;;;;;;6.57;4.40;;;;;;;10.18;66.46;96793.25;4975784;28;20489;-76
2023/03/21 02:39:48;;;;;;;5.20;3.92;;;;;;;10.20;66.29;96799.13;4975174;28;20054;-76
2023/03/21 02:42:21;;;;;;;7.70;4.43;;;;;;;10.24;65.54;96787.34;4975720;28;20058;-76
2023/03/21 02:44:58;;;;;;;6.00;4.30;;;;;;;10.29;67.30;96787.66;4976139;28;20134;-76
2023/03/21 02:47:33;;;;;;;5.70;4.30;;;;;;;10.32;65.75;96781.31;4975660;28;20134;-76
2023/03/21 02:50:09;;;;;;;10.82;4.53;;;;;;;10.34;64.73;96781.13;4975488;28;20517;-76
2023/03/21 02:52:40;;;;;;;5.15;4.00;;;;;;;10.31;64.44;96775.25;4975922;28;20050;-76
2023/03/21 02:55:12;;;;;;;6.68;4.60;;;;;;;10.29;64.48;96782.44;4979298;28;20110;-76
2023/03/21 02:57:43;;;;;;;4.38;3.97;;;;;;;10.24;64.68;96782.13;4993857;28;20053;-76
2023/03/21 03:00:17;;;;;;;6.70;4.13;;;;;;;10.21;64.70;96785.09;4993989;28;20110;-76
2023/03/21 03:02:45;;;;;;;7.45;4.20;;;;;;;10.22;64.75;96780.69;4993401;28;20150;-76
2023/03/21 03:05:19;;;;;;;5.72;4.45;;;;;;;10.21;65.16;96779.91;4992294;28;20061;-76
2023/03/21 03:08:17;;;;;;;7.47;4.38;;;;;;;10.23;65.18;96780.53;4975599;28;20058;-76
2023/03/21 03:10:58;;;;;;;5.50;4.50;;;;;;;10.24;65.03;96776.13;4975175;28;20086;-76
2023/03/21 03:13:42;;;;;;;5.40;3.60;;;;;;;10.23;64.86;96780.53;4975104;28;20057;-76
2023/03/21 03:16:21;;;;;;;6.53;4.40;;;;;;;10.22;65.06;96778.91;4975154;28;20057;-76
2023/03/21 03:18:53;;;;;;;4.78;4.18;;;;;;;10.19;65.31;96781.88;4974276;28;20053;-76
2023/03/21 03:21:24;;;;;;;4.30;3.85;;;;;;;10.17;65.01;96781.22;4975000;28;20141;-75
2023/03/21 03:23:57;;;;;;;4.83;4.27;;;;;;;10.13;65.18;96784.34;4974874;28;20079;-76
2023/03/21 03:26:30;;;;;;;6.43;5.00;;;;;;;10.10;65.24;96780.28;4975139;28;20410;-76
2023/03/21 03:29:01;;;;;;;7.25;5.47;;;;;;;10.08;65.18;96783.09;4974766;28;20062;-76
2023/03/21 03:31:33;;;;;;;5.85;4.72;;;;;;;10.04;65.22;96776.59;4974751;28;20204;-76
2023/03/21 03:34:05;;;;;;;5.50;4.93;;;;;;;10.00;65.22;96785.75;4974815;28;20047;-76
2023/03/21 03:36:37;;;;;;;9.07;5.43;;;;;;;9.96;65.25;96781.03;4974921;28;20066;-76
2023/03/21 03:39:10;;;;;;;11.50;5.00;;;;;;;9.92;65.62;96777.16;4974272;28;20422;-76
2023/03/21 03:41:44;;;;;;;7.07;5.57;;;;;;;9.92;65.28;96782.38;4974407;28;20508;-76
2023/03/21 03:44:32;;;;;;;7.80;5.45;;;;;;;9.87;65.31;96775.06;4974733;28;20445;-76
2023/03/21 03:47:05;;;;;;;9.27;5.22;;;;;;;9.85;65.46;96782.25;4974882;28;20051;-76
2023/03/21 03:49:37;;;;;;;6.03;5.05;;;;;;;9.83;65.53;96784.22;4973721;28;20505;-76
2023/03/21 03:52:11;;;;;;;5.83;5.13;;;;;;;9.80;65.59;96784.56;4974267;28;20055;-76
2023/03/21 03:54:43;;;;;;;8.27;5.43;;;;;;;9.78;65.67;96776.91;4974417;28;20061;-76
2023/03/21 03:57:12;;;;;;;6.70;5.70;;;;;;;9.76;65.73;96776.28;4974114;28;20057;-76
2023/03/21 03:59:41;;;;;;;7.47;4.75;;;;;;;9.77;65.75;96775.28;4973273;28;20059;-76
2023/03/21 04:02:09;;;;;;;7.45;4.30;;;;;;;9.78;66.13;96776.13;4974453;28;20535;-76
2023/03/21 04:04:37;;;;;;;8.75;5.18;;;;;;;9.79;65.93;96778.53;4974155;28;20050;-76
2023/03/21 04:07:06;;;;;;;6.97;4.50;;;;;;;9.78;65.77;96778.72;4974260;28;20062;-76
2023/03/21 04:09:35;;;;;;;5.45;4.05;;;;;;;9.75;66.25;96769.47;4973284;28;20047;-76
2023/03/21 04:12:13;;;;;;;4.85;3.88;;;;;;;9.78;68.38;96771.72;4974246;28;20509;-76
2023/03/21 04:14:40;;;;;;;5.25;3.75;;;;;;;9.77;66.70;96766.66;4974280;28;20145;-76
2023/03/21 04:17:14;;;;;;;6.30;4.07;;;;;;;9.75;66.62;96761.66;4974193;28;20085;-75
2023/03/21 04:19:42;;;;;;;5.85;3.50;;;;;;;9.74;66.46;96762.63;4973258;28;20051;-76
2023/03/21 04:22:10;;;;;;;6.00;4.05;;;;;;;9.71;66.30;96755.16;4973938;28;20141;-76
2023/03/21 04:24:38;;;;;;;4.93;4.05;;;;;;;9.67;66.45;96753.88;4974059;28;20145;-76
2023/03/21 04:27:06;;;;;;;7.13;4.13;;;;;;;9.66;66.60;96762.66;4973878;28;20050;-76
2023/03/21 04:29:35;;;;;;;6.82;3.65;;;;;;;9.64;66.79;96756.81;4973363;28;20485;-76
2023/03/21 04:32:03;;;;;;;3.72;3.08;;;;;;;9.66;66.77;96752.25;4973645;28;20057;-76
2023/03/21 04:34:30;;;;;;;4.57;3.78;;;;;;;9.66;66.74;96750.47;4973845;28;20452;-76
2023/03/21 04:36:58;;;;;;;4.07;3.33;;;;;;;9.66;66.54;96757.44;4973868;28;20051;-76
2023/03/21 04:39:25;;;;;;;5.78;3.75;;;;;;;9.62;66.55;96756.16;4972986;28;20078;-76
2023/03/21 04:41:53;;;;;;;4.75;3.03;;;;;;;9.63;66.96;96757.81;4973736;28;20050;-75
2023/03/21 04:44:20;;;;;;;3.85;2.95;;;;;;;9.66;67.00;96757.44;4973635;28;20061;-76
2023/03/21 04:46:50;;;;;;;4.20;3.05;;;;;;;9.70;66.89;96762.13;4974962;28;20066;-76
2023/03/21 04:49:18;;;;;;;4.10;2.97;;;;;;;9.73;66.50;96757.56;4974142;28;20047;-75
2023/03/21 04:51:45;;;;;;;5.28;3.67;;;;;;;9.70;66.38;96753.50;4973883;28;20054;-76
2023/03/21 04:54:13;;;;;;;4.55;3.13;;;;;;;9.67;66.46;96754.69;4973826;28;20051;-76
2023/03/21 04:56:41;;;;;;;3.53;2.60;;;;;;;9.72;67.53;96755.97;4973802;28;20069;-76
2023/03/21 04:59:11;;;;;;;5.43;2.97;;;;;;;9.76;66.69;96758.03;4972963;28;20055;-76
2023/03/21 05:01:40;;;;;;;3.75;2.80;;;;;;;9.79;67.32;96755.09;4973555;28;20138;-76
2023/03/21 05:04:09;;;;;;;3.80;2.63;;;;;;;9.82;66.71;96757.34;4973526;28;20138;-76
2023/03/21 05:06:37;;;;;;;4.22;3.47;;;;;;;9.79;66.21;96762.91;4973843;28;20055;-76
2023/03/21 05:09:05;;;;;;;5.80;3.33;;;;;;;9.76;66.10;96763.25;4973078;28;20051;-76
2023/03/21 05:11:36;;;;;;;4.45;3.30;;;;;;;9.72;66.12;96767.19;4976152;28;20194;-76
2023/03/21 05:14:04;;;;;;;3.50;3.20;;;;;;;9.69;66.30;96767.53;4977383;28;20113;-76
2023/03/21 05:16:33;;;;;;;3.50;3.10;;;;;;;9.66;66.19;96773.06;4977247;28;20050;-76
2023/03/21 05:19:03;;;;;;;4.68;3.47;;;;;;;9.62;66.27;96772.63;4976933;28;20058;-76
2023/03/21 05:21:40;;;;;;;3.22;2.88;;;;;;;9.59;66.59;96775.56;4977423;28;20054;-75
2023/03/21 05:24:11;;;;;;;8.45;4.18;;;;;;;9.58;66.64;96770.53;4976992;28;20089;-75
2023/03/21 05:26:39;;;;;;;4.85;3.35;;;;;;;9.58;66.37;96763.53;4977205;28;20497;-76
2023/03/21 05:29:07;;;;;;;10.07;4.20;;;;;;;9.59;66.74;96765.13;4976282;28;20413;-75
2023/03/21 05:31:35;;;;;;;5.50;3.90;;;;;;;9.59;66.42;96761.72;4977229;28;20170;-75
2023/03/21 05:34:03;;;;;;;3.65;3.28;;;;;;;9.58;66.49;96765.34;4979244;28;20053;-75
2023/03/21 05:49:11;;;;;;;5.22;3.33;;;;;;;9.42;66.89;96766.19;5001521;28;20065;-83
2023/03/21 05:58:55;;;;;;;8.20;4.50;;;;;;;9.31;66.38;96770.00;4996999;28;20046;-82
2023/03/21 06:01:23;;;;;;;8.68;4.38;;;;;;;9.28;66.58;96778.16;4998773;28;20038;-82
2023/03/21 06:03:51;;;;;;;7.05;4.55;;;;;;;9.26;66.70;96773.09;4998372;28;20095;-82
2023/03/21 06:07:03;;;;;;;6.80;4.03;;;;;;;9.26;66.62;96767.09;4977908;28;20055;-82
2023/03/21 06:14:16;;;;;;;14.50;7.20;;;;;;;9.26;67.22;96767.09;4984991;28;20065;-82
2023/03/21 06:20:50;;;;;;;11.13;6.13;;;;;;;9.32;67.35;96770.81;4982481;28;20054;-82
2023/03/21 06:34:27;;;;;;;12.18;6.07;;;;;;;9.54;66.08;96774.47;5266369;23;20053;-82
2023/03/21 06:36:55;;;;;;;11.70;5.82;;;;;;;9.57;66.48;96774.09;5038475;28;20057;-83
2023/03/21 06:49:53;;;;;;;12.40;6.13;;;;;;;9.83;65.47;96772.00;4977236;28;20042;-82
2023/03/21 07:00:37;;;;;;;7.82;4.03;;;;;;;9.96;65.39;96786.25;5000746;23;20457;-76
2023/03/21 07:03:04;;;;;;;7.97;4.28;;;;;;;10.02;65.31;96788.97;5054323;28;20049;-76
2023/03/21 07:05:35;;;;;;;7.63;4.25;;;;;;;10.10;66.36;96786.31;5053957;28;20502;-76
2023/03/21 07:08:04;;;;;;;5.18;4.47;;;;;;;10.14;64.59;96791.97;5053485;28;20049;-76
2023/03/21 07:10:31;;;;;;;9.02;4.53;;;;;;;10.11;64.17;96782.72;5046687;28;20053;-76
2023/03/21 07:13:00;;;;;;;4.68;4.05;;;;;;;10.15;66.04;96788.41;5034256;28;20046;-76
2023/03/21 07:15:27;;;;;;;6.80;4.18;;;;;;;10.24;67.22;96781.34;5034059;28;20530;-76
2023/03/21 07:17:55;;;;;;;8.60;5.03;;;;;;;10.29;65.22;96774.63;5032843;28;20055;-76
2023/03/21 07:20:22;;;;;;;6.25;4.53;;;;;;;10.29;64.36;96774.63;5033723;28;20053;-76
2023/03/21 07:22:51;;;;;;;6.40;3.72;;;;;;;10.29;64.24;96774.63;5033660;28;20053;-76
2023/03/21 07:25:19;;;;;;;5.43;4.20;;;;;;;10.35;63.88;96772.31;5033808;28;20069;-76
2023/03/21 07:27:47;;;;;;;6.60;4.80;;;;;;;10.41;65.47;96767.22;5033649;28;20056;-75
2023/03/21 07:30:15;;;;;;;8.05;5.53;;;;;;;10.50;64.98;96767.94;5033245;28;20045;-76
2023/03/21 07:32:44;;;;;;;8.75;4.78;;;;;;;10.57;65.81;96765.44;5039856;28;20045;-76
2023/03/21 07:35:14;;;;;;;7.25;4.32;;;;;;;10.64;65.35;96776.78;5046685;28;20054;-76
2023/03/21 07:37:42;;;;;;;7.60;4.57;;;;;;;10.69;64.06;96771.84;5038260;28;20128;-77
2023/03/21 07:40:12;;;;;;;8.00;4.72;;;;;;;10.71;62.71;96778.53;5033515;28;20611;-76
2023/03/21 07:42:40;;;;;;;10.55;5.65;;;;;;;10.75;62.63;96778.94;5034149;28;20124;-76
2023/03/21 07:45:10;;;;;;;9.40;5.43;;;;;;;10.80;62.98;96773.19;5033446;28;20055;-76
2023/03/21 07:47:37;;;;;;;7.68;5.20;;;;;;;10.86;62.05;96775.09;5033266;28;20148;-76
2023/03/21 07:50:05;;;;;;;11.43;5.90;;;;;;;10.89;61.85;96779.97;5032362;28;20053;-76
2023/03/21 07:52:33;;;;;;;6.57;5.07;;;;;;;10.92;61.18;96784.81;5033282;28;20053;-77
2023/03/21 07:55:00;;;;;;;6.15;4.35;;;;;;;10.97;60.88;96777.25;5033181;28;20081;-76
2023/03/21 07:57:29;;;;;;;8.20;4.43;;;;;;;11.04;60.66;96782.56;5033342;28;20582;-76
2023/03/21 07:59:57;;;;;;;5.07;3.85;;;;;;;11.11;61.40;96776.47;5032403;28;20049;-76
2023/03/21 08:02:25;;;;;;;6.25;3.72;;;;;;;11.20;61.75;96777.19;5033017;28;20058;-76
2023/03/21 08:04:52;;;;;;;6.07;3.17;;;;;;;11.31;62.37;96775.91;5033262;28;20427;-76
2023/03/21 08:07:20;;;;;;;5.75;3.35;;;;;;;11.40;60.58;96777.44;5033203;28;20049;-76
2023/03/21 08:09:48;;;;;;;5.55;2.90;;;;;;;11.49;63.32;96781.56;5032204;28;20085;-76
2023/03/21 08:12:15;;;;;;;4.45;2.40;;;;;;;11.60;62.45;96782.09;5032892;28;20057;-76
2023/03/21 08:14:45;;;;;;;3.45;2.63;;;;;;;11.58;58.99;96771.81;5032614;28;20061;-76
2023/03/21 08:17:12;;;;;;;3.40;2.60;;;;;;;11.57;58.95;96777.19;5032831;28;20515;-76
2023/03/21 08:19:40;;;;;;;3.10;2.10;;;;;;;11.61;58.63;96773.22;5031943;28;20045;-76
2023/03/21 08:22:07;;;;;;;2.78;1.83;;;;;;;11.68;58.92;96761.06;5032637;28;20467;-76
2023/03/21 08:24:35;;;;;;;3.75;2.10;;;;;;;11.78;58.81;96771.22;5032456;28;20053;-76
2023/03/21 08:27:02;;;;;;;2.75;2.28;;;;;;;11.90;61.27;96773.19;5032214;28;20049;-76
2023/03/21 08:29:30;;;;;;;2.95;2.55;;;;;;;12.05;61.01;96774.97;5031600;28;20507;-77
2023/03/21 08:31:59;;;;;;;4.80;2.40;;;;;;;12.14;59.37;96766.00;5032551;28;20080;-76
2023/03/21 08:34:26;;;;;;;2.58;2.30;;;;;;;12.37;61.27;96763.16;5032563;28;20049;-76
2023/03/21 08:36:54;;;;;;;4.43;2.40;;;;;;;12.61;57.30;96756.69;5032695;28;20431;-76
2023/03/21 08:39:23;;;;;;;4.07;2.80;;;;;;;12.71;55.98;96759.00;5031634;28;20105;-76
2023/03/21 08:41:51;;;;;;;5.15;2.50;;;;;;;12.83;55.64;96759.25;5032312;28;20049;-76
2023/03/21 08:44:19;;;;;;;4.55;2.67;;;;;;;12.98;54.44;96754.72;5031841;28;20435;-76
2023/03/21 08:46:46;;;;;;;6.82;2.50;;;;;;;13.11;53.95;96759.22;5032323;28;20478;-76
2023/03/21 08:49:15;;;;;;;2.70;1.83;;;;;;;13.10;52.45;96752.38;5031598;28;20079;-76
2023/03/21 08:51:44;;;;;;;2.67;1.92;;;;;;;13.16;52.91;96757.66;5031691;28;20043;-76
2023/03/21 08:54:19;;;;;;;2.45;2.00;;;;;;;13.31;52.06;96756.72;5031850;28;20495;-76
2023/03/21 08:56:47;;;;;;;5.15;1.95;;;;;;;13.42;55.22;96750.94;5032117;28;20112;-76
2023/03/21 08:59:15;;;;;;;2.55;2.15;;;;;;;13.56;55.61;96759.66;5031541;28;20491;-76
2023/03/21 09:01:43;;;;;;;3.65;2.17;;;;;;;13.68;53.40;96750.22;5031901;28;20056;-77
2023/03/21 09:04:10;;;;;;;1.95;1.60;;;;;;;13.88;55.65;96760.75;5032079;28;20053;-77
2023/03/21 09:06:46;;;;;;;3.40;2.15;;;;;;;14.06;55.47;96757.56;5031948;28;20053;-76
2023/03/21 09:09:14;;;;;;;1.70;1.55;;;;;;;14.12;50.87;96750.69;5031454;28;20550;-76
2023/03/21 09:11:41;;;;;;;5.30;1.90;;;;;;;14.17;50.51;96750.94;5031980;28;20056;-76
2023/03/21 09:14:10;;;;;;;3.13;1.80;;;;;;;14.22;49.76;96749.31;5032337;28;20479;-76
2023/03/21 09:16:38;;;;;;;1.90;1.80;;;;;;;14.26;48.97;96746.28;5031992;28;20570;-76
2023/03/21 09:19:07;;;;;;;5.10;1.73;;;;;;;14.25;48.42;96748.09;5031292;28;20053;-76
2023/03/21 09:21:35;;;;;;;3.63;1.80;;;;;;;14.29;48.63;96745.88;5031666;28;20045;-76
2023/03/21 09:24:05;;;;;;;2.58;1.65;;;;;;;14.41;48.18;96744.28;5032096;28;20474;-76
2023/03/21 09:26:33;;;;;;;4.38;1.30;;;;;;;14.58;48.07;96736.81;5031967;28;20454;-76
2023/03/21 09:29:01;;;;;;;1.90;1.60;;;;;;;14.72;47.27;96740.25;5031371;28;20136;-76
2023/03/21 09:31:29;;;;;;;3.78;1.50;;;;;;;14.81;46.99;96739.81;5043761;28;20117;-77
2023/03/21 09:33:57;;;;;;;7.45;1.80;;;;;;;14.87;46.81;96743.44;5052617;28;20107;-76
2023/03/21 09:36:26;;;;;;;3.45;1.60;;;;;;;14.92;48.37;96740.19;5052096;28;20080;-77
2023/03/21 09:38:55;;;;;;;1.75;1.48;;;;;;;14.96;46.59;96742.22;5051216;28;20038;-77
2023/03/21 09:41:40;;;;;;;3.70;1.55;;;;;;;15.03;45.61;96736.94;5038520;28;20045;-76
2023/03/21 09:44:23;;;;;;;3.20;1.40;;;;;;;15.13;45.50;96737.31;5032541;28;20574;-76
2023/03/21 09:46:58;;;;;;;1.67;1.30;;;;;;;15.35;44.96;96742.28;5032378;28;20057;-75
2023/03/21 09:49:29;;;;;;;3.78;1.00;;;;;;;15.53;45.30;96742.41;5031221;28;20049;-76
2023/03/21 09:52:02;;;;;;;1.33;0.80;;;;;;;15.71;47.15;96738.28;5031863;28;20046;-77
2023/03/21 09:54:33;;;;;;;2.15;1.00;;;;;;;15.95;48.41;96734.94;5031889;28;20299;-77
2023/03/21 09:57:13;;;;;;;6.70;1.33;;;;;;;16.25;43.65;96726.44;5033520;28;20428;-76
2023/03/21 09:59:41;;;;;;;1.75;1.08;;;;;;;16.60;44.25;96728.56;5034854;28;20157;-76
2023/03/21 10:02:34;;;;;;;1.55;1.15;;;;;;;17.00;42.11;96728.22;5035573;28;20041;-77
2023/03/21 10:05:07;;;;;;;;;;;;;;;17.35;42.10;96724.97;5036078;28;20136;-77
2023/03/21 10:07:40;;;;;;;1.23;0.85;;;;;;;17.66;44.09;96722.13;5035163;28;19975;-77
2023/03/21 10:10:16;;;;;;;1.48;1.02;;;;;;;18.06;42.62;96718.16;5034552;28;20041;-77
2023/03/21 10:12:47;;;;;;;0.95;0.80;;;;;;;18.52;39.96;96719.28;5035644;28;20051;-78
2023/03/21 10:15:18;;;;;;;1.48;1.27;;;;;;;18.95;40.60;96715.47;5035124;28;20057;-77
2023/03/21 10:17:52;;;;;;;2.08;1.00;;;;;;;19.29;36.66;96705.88;5034851;28;20092;-77
2023/03/21 10:20:22;;;;;;;2.85;1.00;;;;;;;19.61;36.41;96705.41;5036318;28;20049;-77
2023/03/21 10:22:52;;;;;;;1.83;1.10;;;;;;;19.92;36.37;96706.78;5036246;28;20136;-77
2023/03/21 10:25:24;;;;;;;1.35;0.80;;;;;;;20.28;36.19;96695.97;5035343;28;20046;-77
2023/03/21 10:27:53;;;;;;;1.05;0.85;;;;;;;20.82;36.54;96700.78;5034822;28;20484;-77
2023/03/21 10:30:28;;;;;;;1.38;0.75;;;;;;;21.31;37.52;96699.00;5027080;28;20045;-78
2023/03/21 10:33:01;;;;;;;2.35;1.42;;;;;;;21.64;33.83;96696.47;5035425;28;20089;-78
2023/03/21 10:35:30;;;;;;;1.77;1.30;;;;;;;;;;5035245;28;20049;-78
2023/03/21 10:37:57;;;;;;;3.00;1.27;;;;;;;21.76;33.40;96684.66;5034461;28;20053;-78
2023/03/21 10:40:25;;;;;;;1.33;1.02;;;;;;;21.98;34.17;96686.44;5034757;28;20053;-78
2023/03/21 10:42:56;;;;;;;1.63;1.10;;;;;;;22.26;33.57;96677.41;5035059;28;20161;-78
2023/03/21 10:45:24;;;;;;;1.50;1.35;;;;;;;22.61;32.13;96676.06;5035379;28;20448;-78
2023/03/21 10:47:54;;;;;;;2.70;1.15;;;;;;;22.87;31.66;96679.66;5034243;28;20423;-78
2023/03/21 10:50:25;;;;;;;1.70;0.80;;;;;;;23.24;31.10;96676.09;5034998;28;20415;-78
2023/03/21 10:52:59;;;;;;;1.25;0.93;;;;;;;23.74;30.00;96679.97;5034982;28;20099;-78
2023/03/21 10:55:30;;;;;;;2.20;1.00;;;;;;;23.92;30.33;96677.88;5035370;28;20396;-78
2023/03/21 10:58:06;;;;;;;1.33;1.15;;;;;;;24.14;30.46;96685.63;5034038;28;20057;-78
2023/03/21 11:00:37;;;;;;;1.95;1.35;;;;;;;24.28;29.34;96681.38;5034462;28;20050;-79
2023/03/21 11:03:05;;;;;;;1.63;1.50;;;;;;;24.49;30.25;96676.03;5034314;28;20045;-78
2023/03/21 11:05:36;;;;;;;3.40;1.13;;;;;;;24.78;30.34;96673.59;5034651;28;20085;-78
2023/03/21 11:08:06;;;;;;;1.83;1.15;;;;;;;25.07;31.13;96669.22;5033731;28;20060;-78
2023/03/21 11:10:36;;;;;;;1.77;1.00;;;;;;;25.20;29.84;96661.72;5034283;28;20591;-79
2023/03/21 11:13:16;;;;;;;1.88;1.40;;;;;;;25.15;28.20;96659.06;5034801;28;20412;-79
2023/03/21 11:15:52;;;;;;;1.52;1.00;;;;;;;25.03;28.90;96662.03;5034723;28;20046;-79
2023/03/21 11:18:22;;;;;;;3.35;1.10;;;;;;;24.99;31.41;96664.47;5033089;28;20049;-79
2023/03/21 11:20:52;;;;;;;1.88;1.52;;;;;;;25.05;28.72;96655.34;5034246;28;20049;-79
2023/03/21 11:23:21;;;;;;;2.30;1.15;;;;;;;24.90;28.67;96641.25;5033911;28;20049;-79
2023/03/21 11:25:50;;;;;;;1.27;1.17;;;;;;;24.74;28.87;96646.66;5034021;28;20165;-78
2023/03/21 11:28:22;;;;;;;2.45;1.30;;;;;;;24.58;28.56;96650.44;5033177;28;20096;-79
2023/03/21 11:30:53;;;;;;;2.50;1.42;;;;;;;24.47;29.02;96649.63;5033637;28;20529;-79
2023/03/21 11:33:25;;;;;;;1.40;0.85;;;;;;;24.28;30.06;96652.03;5033687;28;20053;-79
2023/03/21 11:36:01;;;;;;;3.30;1.55;;;;;;;23.94;30.94;96641.94;5034053;28;20132;-78
2023/03/21 11:38:32;;;;;;;3.28;2.03;;;;;;;23.73;31.43;96635.75;5033315;28;20060;-78
2023/03/21 11:41:01;;;;;;;1.92;1.42;;;;;;;23.55;32.43;96628.25;5033826;28;20115;-79
2023/03/21 11:43:34;;;;;;;2.33;1.75;;;;;;;23.31;30.38;96639.41;5033558;28;20047;-79
2023/03/21 11:46:07;;;;;;;3.15;1.88;;;;;;;23.19;30.24;96629.00;5033806;28;20549;-79
2023/03/21 11:48:37;;;;;;;;;;;;;;;23.15;31.19;96625.25;5033300;28;20049;-79
2023/03/21 11:51:16;;;;;;;1.90;1.23;;;;;;;23.17;33.26;96627.66;5033715;28;19928;-79
2023/03/21 11:53:48;;;;;;;2.00;1.38;;;;;;;23.20;31.88;96627.16;5033576;28;20055;-79
2023/03/21 11:56:22;;;;;;;;;;;;;;;23.28;30.89;96618.63;5034397;28;20141;-79
2023/03/21 11:59:05;;;;;;;1.55;1.38;;;;;;;23.19;32.08;96621.00;5032795;28;20349;-78
2023/03/21 12:01:41;;;;;;;4.38;2.22;;;;;;;23.14;33.11;96615.69;5033177;28;20419;-79
2023/03/21 12:04:20;;;;;;;2.97;1.63;;;;;;;23.17;33.54;96611.69;5033185;28;20245;-79
2023/03/21 12:06:56;;;;;;;1.40;1.30;;;;;;;23.38;34.38;96616.00;5033392;28;20053;-79
2023/03/21 12:09:34;;;;;;;1.92;1.40;;;;;;;23.43;31.41;96612.56;5032420;28;20447;-79
2023/03/21 12:12:16;;;;;;;1.77;1.27;;;;;;;23.30;33.52;96605.88;5032904;28;20053;-78
2023/03/21 12:15:01;;;;;;;2.22;1.48;;;;;;;23.07;33.02;96603.66;5032831;28;20488;-79
2023/03/21 12:17:40;;;;;;;9.73;2.40;;;;;;;22.88;31.37;96587.38;5033695;28;20075;-78
2023/03/21 12:20:26;;;;;;;2.92;1.65;;;;;;;22.87;33.89;96586.56;5031506;28;20045;-79
2023/03/21 12:23:10;;;;;;;2.33;1.30;;;;;;;22.98;34.49;96582.88;5032677;28;20502;-79
2023/03/21 12:25:43;;;;;;;2.65;2.13;;;;;;;22.92;31.63;96583.91;5033054;28;20049;-79
2023/03/21 12:28:25;;;;;;;9.07;3.03;;;;;;;22.57;31.44;96577.41;5032259;28;20084;-78
2023/03/21 12:31:09;;;;;;;4.78;3.28;;;;;;;22.14;32.96;96568.63;5032880;28;20178;-79
2023/03/21 12:33:49;;;;;;;3.55;2.63;;;;;;;21.93;32.40;96562.38;5032406;28;20049;-78
2023/03/21 12:36:30;;;;;;;5.60;2.22;;;;;;;21.88;33.46;96559.69;5032770;28;20111;-78
2023/03/21 12:39:12;;;;;;;3.63;1.53;;;;;;;21.74;34.69;96567.28;5031790;28;20418;-78
2023/03/21 12:41:45;;;;;;;3.30;1.98;;;;;;;21.52;33.43;96558.63;5033090;28;20045;-79
2023/03/21 12:44:15;;;;;;;3.85;1.73;;;;;;;21.27;33.58;96559.94;5032806;28;20075;-78
2023/03/21 12:46:47;;;;;;;3.17;2.70;;;;;;;20.96;33.68;96553.53;5033177;28;20045;-78
2023/03/21 12:49:18;;;;;;;9.48;5.63;;;;;;;20.78;37.15;96557.31;5031922;28;20049;-78
2023/03/21 12:51:51;;;;;;;5.97;3.30;;;;;;;20.62;36.57;96552.88;5032419;28;20479;-79
2023/03/21 12:54:25;;;;;;;2.70;2.03;;;;;;;20.36;34.74;96553.31;5032669;28;20049;-79
2023/03/21 12:57:01;;;;;;;3.63;2.78;;;;;;;20.15;35.99;96549.59;5032473;28;20049;-79